sensor_id;sensor_type;location;lat;lon;timestamp;P1;durP1;ratioP1;P2;durP2;ratioP2
69979;SDS011;57318;56.232;43.944;2022-10-13T00:00:25;15.43;;;8.32;;
69979;SDS011;57318;56.232;43.944;2022-10-13T00:02:51;13.07;;;7.10;;
69979;SDS011;57318;56.232;43.944;2022-10-13T00:05:16;14.47;;;7.90;;
69979;SDS011;57318;56.232;43.944;2022-10-13T00:07:42;15.53;;;7.80;;
69979;SDS011;57318;56.232;43.944;2022-10-13T00:10:08;14.97;;;7.47;;
69979;SDS011;57318;56.232;43.944;2022-10-13T00:12:34;15.53;;;7.63;;
69979;SDS011;57318;56.232;43.944;2022-10-13T00:15:02;14.27;;;7.05;;
69979;SDS011;57318;56.232;43.944;2022-10-13T00:17:29;16.45;;;8.25;;
69979;SDS011;57318;56.232;43.944;2022-10-13T00:19:55;17.17;;;8.10;;
69979;SDS011;57318;56.232;43.944;2022-10-13T00:22:21;17.87;;;7.93;;
69979;SDS011;57318;56.232;43.944;2022-10-13T00:24:50;20.77;;;8.60;;
69979;SDS011;57318;56.232;43.944;2022-10-13T00:27:16;22.90;;;10.40;;
69979;SDS011;57318;56.232;43.944;2022-10-13T00:29:42;24.23;;;12.47;;
69979;SDS011;57318;56.232;43.944;2022-10-13T00:32:08;16.20;;;8.80;;
69979;SDS011;57318;56.232;43.944;2022-10-13T00:34:35;17.53;;;8.23;;
69979;SDS011;57318;56.232;43.944;2022-10-13T00:37:01;17.77;;;7.50;;
69979;SDS011;57318;56.232;43.944;2022-10-13T00:39:27;16.83;;;8.30;;
69979;SDS011;57318;56.232;43.944;2022-10-13T00:41:52;16.50;;;8.50;;
69979;SDS011;57318;56.232;43.944;2022-10-13T00:47:21;17.15;;;8.90;;
69979;SDS011;57318;56.232;43.944;2022-10-13T00:49:48;15.63;;;7.97;;
69979;SDS011;57318;56.232;43.944;2022-10-13T00:52:15;17.50;;;9.15;;
69979;SDS011;57318;56.232;43.944;2022-10-13T00:54:42;18.50;;;10.32;;
69979;SDS011;57318;56.232;43.944;2022-10-13T00:57:09;20.70;;;9.98;;
69979;SDS011;57318;56.232;43.944;2022-10-13T00:59:35;17.63;;;8.50;;
69979;SDS011;57318;56.232;43.944;2022-10-13T01:02:03;20.17;;;8.68;;
69979;SDS011;57318;56.232;43.944;2022-10-13T01:04:30;20.70;;;11.87;;
69979;SDS011;57318;56.232;43.944;2022-10-13T01:06:59;23.48;;;12.75;;
69979;SDS011;57318;56.232;43.944;2022-10-13T01:09:26;22.15;;;8.57;;
69979;SDS011;57318;56.232;43.944;2022-10-13T01:17:43;15.85;;;7.35;;
69979;SDS011;57318;56.232;43.944;2022-10-13T01:20:36;17.92;;;7.55;;
69979;SDS011;57318;56.232;43.944;2022-10-13T01:34:32;19.10;;;7.55;;
69979;SDS011;57318;56.232;43.944;2022-10-13T01:37:51;19.98;;;8.13;;
69979;SDS011;57318;56.232;43.944;2022-10-13T01:42:55;17.60;;;7.55;;
69979;SDS011;57318;56.232;43.944;2022-10-13T01:45:30;14.55;;;7.05;;
69979;SDS011;57318;56.232;43.944;2022-10-13T01:48:01;19.63;;;7.55;;
69979;SDS011;57318;56.232;43.944;2022-10-13T01:50:30;16.90;;;8.05;;
69979;SDS011;57318;56.232;43.944;2022-10-13T01:53:00;16.60;;;7.13;;
69979;SDS011;57318;56.232;43.944;2022-10-13T01:55:28;20.50;;;9.32;;
69979;SDS011;57318;56.232;43.944;2022-10-13T01:57:54;27.77;;;11.50;;
69979;SDS011;57318;56.232;43.944;2022-10-13T02:00:20;24.25;;;12.35;;
69979;SDS011;57318;56.232;43.944;2022-10-13T02:08:24;26.73;;;15.25;;
69979;SDS011;57318;56.232;43.944;2022-10-13T02:11:00;17.20;;;11.05;;
69979;SDS011;57318;56.232;43.944;2022-10-13T02:13:42;13.80;;;8.15;;
69979;SDS011;57318;56.232;43.944;2022-10-13T02:16:48;14.90;;;7.28;;
69979;SDS011;57318;56.232;43.944;2022-10-13T02:19:16;9.57;;;5.95;;
69979;SDS011;57318;56.232;43.944;2022-10-13T02:21:43;13.30;;;7.20;;
69979;SDS011;57318;56.232;43.944;2022-10-13T02:24:10;18.42;;;10.48;;
69979;SDS011;57318;56.232;43.944;2022-10-13T02:26:36;22.25;;;11.30;;
69979;SDS011;57318;56.232;43.944;2022-10-13T02:29:09;15.60;;;9.43;;
69979;SDS011;57318;56.232;43.944;2022-10-13T02:31:36;16.33;;;9.77;;
69979;SDS011;57318;56.232;43.944;2022-10-13T02:34:03;17.45;;;9.80;;
69979;SDS011;57318;56.232;43.944;2022-10-13T02:36:29;15.77;;;8.27;;
69979;SDS011;57318;56.232;43.944;2022-10-13T02:38:55;15.60;;;7.87;;
69979;SDS011;57318;56.232;43.944;2022-10-13T02:41:20;12.53;;;7.30;;
69979;SDS011;57318;56.232;43.944;2022-10-13T02:43:46;13.37;;;6.77;;
69979;SDS011;57318;56.232;43.944;2022-10-13T02:46:12;14.13;;;7.73;;
69979;SDS011;57318;56.232;43.944;2022-10-13T02:48:37;15.83;;;9.00;;
69979;SDS011;57318;56.232;43.944;2022-10-13T02:51:03;19.53;;;10.93;;
69979;SDS011;57318;56.232;43.944;2022-10-13T02:53:29;23.30;;;12.47;;
69979;SDS011;57318;56.232;43.944;2022-10-13T02:55:55;15.43;;;8.30;;
69979;SDS011;57318;56.232;43.944;2022-10-13T02:58:20;14.50;;;7.30;;
69979;SDS011;57318;56.232;43.944;2022-10-13T03:00:46;13.37;;;7.80;;
69979;SDS011;57318;56.232;43.944;2022-10-13T03:03:12;11.97;;;6.93;;
69979;SDS011;57318;56.232;43.944;2022-10-13T03:05:37;16.83;;;7.17;;
69979;SDS011;57318;56.232;43.944;2022-10-13T03:08:03;16.30;;;7.60;;
69979;SDS011;57318;56.232;43.944;2022-10-13T03:10:29;14.93;;;8.35;;
69979;SDS011;57318;56.232;43.944;2022-10-13T03:12:56;25.73;;;8.52;;
69979;SDS011;57318;56.232;43.944;2022-10-13T03:15:23;25.10;;;11.15;;
69979;SDS011;57318;56.232;43.944;2022-10-13T03:17:49;30.70;;;13.57;;
69979;SDS011;57318;56.232;43.944;2022-10-13T03:20:15;30.67;;;13.50;;
69979;SDS011;57318;56.232;43.944;2022-10-13T03:22:40;27.77;;;15.40;;
69979;SDS011;57318;56.232;43.944;2022-10-13T03:25:06;29.77;;;14.70;;
69979;SDS011;57318;56.232;43.944;2022-10-13T03:27:32;23.88;;;12.55;;
69979;SDS011;57318;56.232;43.944;2022-10-13T03:29:58;28.33;;;13.15;;
69979;SDS011;57318;56.232;43.944;2022-10-13T03:32:24;39.05;;;18.90;;
69979;SDS011;57318;56.232;43.944;2022-10-13T03:34:50;35.67;;;18.27;;
69979;SDS011;57318;56.232;43.944;2022-10-13T03:37:16;38.75;;;17.15;;
69979;SDS011;57318;56.232;43.944;2022-10-13T03:39:42;33.17;;;18.15;;
69979;SDS011;57318;56.232;43.944;2022-10-13T03:42:08;26.97;;;12.13;;
69979;SDS011;57318;56.232;43.944;2022-10-13T03:47:00;23.80;;;11.95;;
69979;SDS011;57318;56.232;43.944;2022-10-13T03:49:26;22.43;;;13.23;;
69979;SDS011;57318;56.232;43.944;2022-10-13T03:51:51;23.70;;;12.67;;
69979;SDS011;57318;56.232;43.944;2022-10-13T03:54:17;28.20;;;14.07;;
69979;SDS011;57318;56.232;43.944;2022-10-13T03:56:43;33.00;;;18.00;;
69979;SDS011;57318;56.232;43.944;2022-10-13T03:59:10;33.03;;;16.90;;
69979;SDS011;57318;56.232;43.944;2022-10-13T04:01:37;32.28;;;16.40;;
69979;SDS011;57318;56.232;43.944;2022-10-13T04:04:03;29.25;;;15.27;;
69979;SDS011;57318;56.232;43.944;2022-10-13T04:06:29;28.77;;;13.27;;
69979;SDS011;57318;56.232;43.944;2022-10-13T04:08:56;35.00;;;18.98;;
69979;SDS011;57318;56.232;43.944;2022-10-13T04:11:22;31.27;;;16.63;;
69979;SDS011;57318;56.232;43.944;2022-10-13T04:13:48;29.73;;;14.73;;
69979;SDS011;57318;56.232;43.944;2022-10-13T04:18:41;20.00;;;9.25;;
69979;SDS011;57318;56.232;43.944;2022-10-13T04:21:07;16.20;;;8.10;;
69979;SDS011;57318;56.232;43.944;2022-10-13T04:23:35;27.35;;;13.93;;
69979;SDS011;57318;56.232;43.944;2022-10-13T04:28:27;25.35;;;13.80;;
69979;SDS011;57318;56.232;43.944;2022-10-13T04:30:53;23.53;;;11.73;;
69979;SDS011;57318;56.232;43.944;2022-10-13T04:33:19;31.57;;;15.27;;
69979;SDS011;57318;56.232;43.944;2022-10-13T04:35:44;25.83;;;13.47;;
69979;SDS011;57318;56.232;43.944;2022-10-13T04:38:10;31.67;;;17.50;;
69979;SDS011;57318;56.232;43.944;2022-10-13T04:40:36;34.80;;;18.60;;
69979;SDS011;57318;56.232;43.944;2022-10-13T04:43:01;33.57;;;17.43;;
69979;SDS011;57318;56.232;43.944;2022-10-13T04:45:27;28.83;;;15.27;;
69979;SDS011;57318;56.232;43.944;2022-10-13T04:47:53;32.10;;;17.50;;
69979;SDS011;57318;56.232;43.944;2022-10-13T04:50:19;27.40;;;14.77;;
69979;SDS011;57318;56.232;43.944;2022-10-13T04:52:45;23.33;;;13.90;;
69979;SDS011;57318;56.232;43.944;2022-10-13T04:55:10;31.90;;;18.10;;
69979;SDS011;57318;56.232;43.944;2022-10-13T04:57:36;36.43;;;20.37;;
69979;SDS011;57318;56.232;43.944;2022-10-13T05:00:02;37.03;;;18.37;;
69979;SDS011;57318;56.232;43.944;2022-10-13T05:02:33;34.85;;;16.80;;
69979;SDS011;57318;56.232;43.944;2022-10-13T05:04:59;42.78;;;19.38;;
69979;SDS011;57318;56.232;43.944;2022-10-13T05:07:25;35.30;;;21.00;;
69979;SDS011;57318;56.232;43.944;2022-10-13T05:09:50;43.57;;;24.37;;
69979;SDS011;57318;56.232;43.944;2022-10-13T05:12:16;45.77;;;24.57;;
69979;SDS011;57318;56.232;43.944;2022-10-13T05:14:42;45.97;;;26.00;;
69979;SDS011;57318;56.232;43.944;2022-10-13T05:17:07;38.50;;;20.67;;
69979;SDS011;57318;56.232;43.944;2022-10-13T05:19:33;36.50;;;17.73;;
69979;SDS011;57318;56.232;43.944;2022-10-13T05:21:59;25.83;;;12.57;;
69979;SDS011;57318;56.232;43.944;2022-10-13T05:24:25;23.80;;;10.07;;
69979;SDS011;57318;56.232;43.944;2022-10-13T05:27:09;19.55;;;10.88;;
69979;SDS011;57318;56.232;43.944;2022-10-13T05:29:37;27.15;;;14.23;;
69979;SDS011;57318;56.232;43.944;2022-10-13T05:32:04;24.85;;;12.75;;
69979;SDS011;57318;56.232;43.944;2022-10-13T05:36:57;30.25;;;16.30;;
69979;SDS011;57318;56.232;43.944;2022-10-13T05:39:23;28.25;;;14.25;;
69979;SDS011;57318;56.232;43.944;2022-10-13T05:41:49;35.87;;;19.20;;
69979;SDS011;57318;56.232;43.944;2022-10-13T05:44:15;45.93;;;23.47;;
69979;SDS011;57318;56.232;43.944;2022-10-13T05:46:41;40.13;;;20.65;;
69979;SDS011;57318;56.232;43.944;2022-10-13T05:49:08;40.88;;;20.95;;
69979;SDS011;57318;56.232;43.944;2022-10-13T05:51:38;36.83;;;19.93;;
69979;SDS011;57318;56.232;43.944;2022-10-13T05:56:58;28.50;;;14.55;;
69979;SDS011;57318;56.232;43.944;2022-10-13T05:59:34;28.38;;;15.57;;
69979;SDS011;57318;56.232;43.944;2022-10-13T06:02:04;24.67;;;13.35;;
69979;SDS011;57318;56.232;43.944;2022-10-13T06:04:39;25.40;;;14.20;;
69979;SDS011;57318;56.232;43.944;2022-10-13T06:07:07;27.52;;;15.15;;
69979;SDS011;57318;56.232;43.944;2022-10-13T06:09:34;27.38;;;13.13;;
69979;SDS011;57318;56.232;43.944;2022-10-13T06:12:04;21.92;;;12.68;;
69979;SDS011;57318;56.232;43.944;2022-10-13T06:14:32;21.08;;;13.50;;
69979;SDS011;57318;56.232;43.944;2022-10-13T06:16:58;33.43;;;22.60;;
69979;SDS011;57318;56.232;43.944;2022-10-13T06:19:23;37.13;;;23.93;;
69979;SDS011;57318;56.232;43.944;2022-10-13T06:21:49;31.90;;;22.27;;
69979;SDS011;57318;56.232;43.944;2022-10-13T06:24:15;36.87;;;22.80;;
69979;SDS011;57318;56.232;43.944;2022-10-13T06:26:41;30.83;;;21.13;;
69979;SDS011;57318;56.232;43.944;2022-10-13T06:29:06;34.70;;;23.33;;
69979;SDS011;57318;56.232;43.944;2022-10-13T06:31:33;30.17;;;19.73;;
69979;SDS011;57318;56.232;43.944;2022-10-13T06:33:58;35.43;;;20.90;;
69979;SDS011;57318;56.232;43.944;2022-10-13T06:36:24;29.37;;;16.57;;
69979;SDS011;57318;56.232;43.944;2022-10-13T06:38:50;27.53;;;13.83;;
69979;SDS011;57318;56.232;43.944;2022-10-13T06:41:16;20.50;;;10.38;;
69979;SDS011;57318;56.232;43.944;2022-10-13T06:43:42;26.73;;;10.97;;
69979;SDS011;57318;56.232;43.944;2022-10-13T06:46:08;27.90;;;10.83;;
69979;SDS011;57318;56.232;43.944;2022-10-13T06:48:34;24.15;;;10.82;;
69979;SDS011;57318;56.232;43.944;2022-10-13T06:51:04;20.47;;;10.10;;
69979;SDS011;57318;56.232;43.944;2022-10-13T06:53:31;22.88;;;11.27;;
69979;SDS011;57318;56.232;43.944;2022-10-13T06:55:58;25.08;;;14.05;;
69979;SDS011;57318;56.232;43.944;2022-10-13T06:58:26;25.20;;;13.45;;
69979;SDS011;57318;56.232;43.944;2022-10-13T07:00:52;20.75;;;13.35;;
69979;SDS011;57318;56.232;43.944;2022-10-13T07:03:18;18.38;;;13.43;;
69979;SDS011;57318;56.232;43.944;2022-10-13T07:05:44;16.58;;;8.68;;
69979;SDS011;57318;56.232;43.944;2022-10-13T07:08:10;17.17;;;10.90;;
69979;SDS011;57318;56.232;43.944;2022-10-13T07:10:37;22.48;;;15.48;;
69979;SDS011;57318;56.232;43.944;2022-10-13T07:13:03;23.95;;;15.18;;
69979;SDS011;57318;56.232;43.944;2022-10-13T07:15:29;32.17;;;17.80;;
69979;SDS011;57318;56.232;43.944;2022-10-13T07:17:55;38.87;;;22.83;;
69979;SDS011;57318;56.232;43.944;2022-10-13T07:20:21;40.27;;;20.53;;
69979;SDS011;57318;56.232;43.944;2022-10-13T07:22:48;51.65;;;25.95;;
69979;SDS011;57318;56.232;43.944;2022-10-13T07:25:14;44.80;;;22.73;;
69979;SDS011;57318;56.232;43.944;2022-10-13T07:27:40;44.88;;;23.73;;
69979;SDS011;57318;56.232;43.944;2022-10-13T07:30:06;35.83;;;19.70;;
69979;SDS011;57318;56.232;43.944;2022-10-13T07:34:58;42.38;;;21.40;;
69979;SDS011;57318;56.232;43.944;2022-10-13T07:37:24;29.60;;;14.37;;
69979;SDS011;57318;56.232;43.944;2022-10-13T07:39:50;25.17;;;13.00;;
69979;SDS011;57318;56.232;43.944;2022-10-13T07:42:16;30.52;;;15.13;;
69979;SDS011;57318;56.232;43.944;2022-10-13T07:44:42;28.20;;;12.77;;
69979;SDS011;57318;56.232;43.944;2022-10-13T07:47:08;29.70;;;14.43;;
69979;SDS011;57318;56.232;43.944;2022-10-13T07:49:34;24.83;;;11.13;;
69979;SDS011;57318;56.232;43.944;2022-10-13T07:51:59;25.40;;;12.90;;
69979;SDS011;57318;56.232;43.944;2022-10-13T07:54:25;24.57;;;10.90;;
69979;SDS011;57318;56.232;43.944;2022-10-13T07:56:51;117.63;;;15.88;;
69979;SDS011;57318;56.232;43.944;2022-10-13T07:59:18;37.65;;;11.32;;
69979;SDS011;57318;56.232;43.944;2022-10-13T08:01:44;48.08;;;12.82;;
69979;SDS011;57318;56.232;43.944;2022-10-13T08:04:09;93.63;;;15.57;;
69979;SDS011;57318;56.232;43.944;2022-10-13T08:06:35;122.47;;;17.57;;
69979;SDS011;57318;56.232;43.944;2022-10-13T08:09:01;150.53;;;18.37;;
69979;SDS011;57318;56.232;43.944;2022-10-13T08:11:28;58.83;;;17.20;;
69979;SDS011;57318;56.232;43.944;2022-10-13T08:13:54;35.30;;;16.15;;
69979;SDS011;57318;56.232;43.944;2022-10-13T08:16:25;42.25;;;17.95;;
69979;SDS011;57318;56.232;43.944;2022-10-13T08:18:52;35.08;;;13.95;;
69979;SDS011;57318;56.232;43.944;2022-10-13T08:21:18;60.33;;;22.50;;
69979;SDS011;57318;56.232;43.944;2022-10-13T08:23:46;59.35;;;19.55;;
69979;SDS011;57318;56.232;43.944;2022-10-13T08:26:17;91.40;;;17.95;;
69979;SDS011;57318;56.232;43.944;2022-10-13T08:28:48;108.18;;;18.23;;
69979;SDS011;57318;56.232;43.944;2022-10-13T08:31:14;71.47;;;15.85;;
69979;SDS011;57318;56.232;43.944;2022-10-13T08:33:41;42.92;;;15.73;;
69979;SDS011;57318;56.232;43.944;2022-10-13T08:36:07;39.90;;;16.87;;
69979;SDS011;57318;56.232;43.944;2022-10-13T08:38:33;39.47;;;17.17;;
69979;SDS011;57318;56.232;43.944;2022-10-13T08:40:59;35.45;;;13.25;;
69979;SDS011;57318;56.232;43.944;2022-10-13T08:43:26;31.90;;;13.55;;
69979;SDS011;57318;56.232;43.944;2022-10-13T08:45:54;41.47;;;16.65;;
69979;SDS011;57318;56.232;43.944;2022-10-13T08:48:29;44.25;;;18.70;;
69979;SDS011;57318;56.232;43.944;2022-10-13T08:51:01;31.15;;;14.82;;
69979;SDS011;57318;56.232;43.944;2022-10-13T08:53:34;33.50;;;15.25;;
69979;SDS011;57318;56.232;43.944;2022-10-13T08:56:06;51.55;;;24.05;;
69979;SDS011;57318;56.232;43.944;2022-10-13T08:58:35;38.03;;;16.33;;
69979;SDS011;57318;56.232;43.944;2022-10-13T09:01:10;46.25;;;20.80;;
69979;SDS011;57318;56.232;43.944;2022-10-13T09:06:42;57.47;;;27.80;;
69979;SDS011;57318;56.232;43.944;2022-10-13T09:09:13;64.30;;;29.77;;
69979;SDS011;57318;56.232;43.944;2022-10-13T09:11:41;55.38;;;28.13;;
69979;SDS011;57318;56.232;43.944;2022-10-13T09:16:49;46.13;;;22.10;;
69979;SDS011;57318;56.232;43.944;2022-10-13T09:19:27;43.65;;;22.33;;
69979;SDS011;57318;56.232;43.944;2022-10-13T09:21:56;57.17;;;29.95;;
69979;SDS011;57318;56.232;43.944;2022-10-13T09:24:37;36.08;;;18.40;;
69979;SDS011;57318;56.232;43.944;2022-10-13T09:27:08;18.20;;;9.63;;
69979;SDS011;57318;56.232;43.944;2022-10-13T09:29:38;17.02;;;9.82;;
69979;SDS011;57318;56.232;43.944;2022-10-13T09:34:48;15.82;;;7.20;;
69979;SDS011;57318;56.232;43.944;2022-10-13T09:37:21;11.60;;;7.40;;
69979;SDS011;57318;56.232;43.944;2022-10-13T09:39:58;14.93;;;8.35;;
69979;SDS011;57318;56.232;43.944;2022-10-13T09:42:29;13.20;;;7.30;;
69979;SDS011;57318;56.232;43.944;2022-10-13T09:45:18;14.07;;;8.30;;
69979;SDS011;57318;56.232;43.944;2022-10-13T09:48:00;13.23;;;7.40;;
69979;SDS011;57318;56.232;43.944;2022-10-13T09:50:29;12.98;;;7.88;;
69979;SDS011;57318;56.232;43.944;2022-10-13T09:53:14;13.25;;;8.15;;
69979;SDS011;57318;56.232;43.944;2022-10-13T09:56:18;12.55;;;6.38;;
69979;SDS011;57318;56.232;43.944;2022-10-13T09:58:46;12.27;;;7.75;;
69979;SDS011;57318;56.232;43.944;2022-10-13T10:01:21;14.27;;;7.68;;
69979;SDS011;57318;56.232;43.944;2022-10-13T10:03:50;15.30;;;8.18;;
69979;SDS011;57318;56.232;43.944;2022-10-13T10:06:17;20.15;;;9.23;;
69979;SDS011;57318;56.232;43.944;2022-10-13T10:08:52;15.32;;;9.07;;
69979;SDS011;57318;56.232;43.944;2022-10-13T10:11:34;16.48;;;8.15;;
69979;SDS011;57318;56.232;43.944;2022-10-13T10:16:55;20.27;;;9.75;;
69979;SDS011;57318;56.232;43.944;2022-10-13T10:19:52;17.83;;;9.50;;
69979;SDS011;57318;56.232;43.944;2022-10-13T10:22:43;21.20;;;9.30;;
69979;SDS011;57318;56.232;43.944;2022-10-13T10:30:42;18.53;;;8.63;;
69979;SDS011;57318;56.232;43.944;2022-10-13T10:36:10;10.00;;;6.85;;
69979;SDS011;57318;56.232;43.944;2022-10-13T10:38:55;10.98;;;6.07;;
69979;SDS011;57318;56.232;43.944;2022-10-13T10:44:34;11.82;;;6.00;;
69979;SDS011;57318;56.232;43.944;2022-10-13T10:47:05;11.55;;;6.13;;
69979;SDS011;57318;56.232;43.944;2022-10-13T10:49:39;12.00;;;6.65;;
69979;SDS011;57318;56.232;43.944;2022-10-13T10:52:06;11.77;;;6.57;;
69979;SDS011;57318;56.232;43.944;2022-10-13T10:54:51;8.88;;;5.47;;
69979;SDS011;57318;56.232;43.944;2022-10-13T10:57:31;7.78;;;5.45;;
69979;SDS011;57318;56.232;43.944;2022-10-13T11:05:19;8.45;;;5.32;;
69979;SDS011;57318;56.232;43.944;2022-10-13T11:15:24;9.20;;;5.03;;
69979;SDS011;57318;56.232;43.944;2022-10-13T11:17:53;7.93;;;5.30;;
69979;SDS011;57318;56.232;43.944;2022-10-13T11:23:24;10.93;;;4.77;;
69979;SDS011;57318;56.232;43.944;2022-10-13T11:25:37;7.82;;;4.72;;
69979;SDS011;57318;56.232;43.944;2022-10-13T11:30:46;7.38;;;4.93;;
69979;SDS011;57318;56.232;43.944;2022-10-13T11:39:01;14.43;;;8.18;;
69979;SDS011;57318;56.232;43.944;2022-10-13T11:41:48;20.05;;;8.10;;
69979;SDS011;57318;56.232;43.944;2022-10-13T11:53:42;7.55;;;5.00;;
69979;SDS011;57318;56.232;43.944;2022-10-13T11:56:33;8.40;;;4.40;;
69979;SDS011;57318;56.232;43.944;2022-10-13T11:59:01;10.02;;;4.75;;
69979;SDS011;57318;56.232;43.944;2022-10-13T12:01:27;6.53;;;4.80;;
69979;SDS011;57318;56.232;43.944;2022-10-13T12:06:32;9.32;;;5.38;;
69979;SDS011;57318;56.232;43.944;2022-10-13T12:09:06;5.68;;;4.20;;
69979;SDS011;57318;56.232;43.944;2022-10-13T12:11:42;7.85;;;4.30;;
69979;SDS011;57318;56.232;43.944;2022-10-13T12:14:22;9.15;;;4.78;;
69979;SDS011;57318;56.232;43.944;2022-10-13T12:16:54;8.18;;;4.38;;
69979;SDS011;57318;56.232;43.944;2022-10-13T12:19:22;9.23;;;4.50;;
69979;SDS011;57318;56.232;43.944;2022-10-13T12:21:51;10.77;;;4.90;;
69979;SDS011;57318;56.232;43.944;2022-10-13T12:24:23;9.95;;;4.90;;
69979;SDS011;57318;56.232;43.944;2022-10-13T12:26:53;11.18;;;4.68;;
69979;SDS011;57318;56.232;43.944;2022-10-13T12:29:24;7.55;;;3.90;;
69979;SDS011;57318;56.232;43.944;2022-10-13T12:31:52;6.63;;;4.10;;
69979;SDS011;57318;56.232;43.944;2022-10-13T12:34:20;6.38;;;4.10;;
69979;SDS011;57318;56.232;43.944;2022-10-13T12:39:51;8.88;;;4.45;;
69979;SDS011;57318;56.232;43.944;2022-10-13T12:42:19;12.43;;;4.65;;
69979;SDS011;57318;56.232;43.944;2022-10-13T12:44:51;13.15;;;4.10;;
69979;SDS011;57318;56.232;43.944;2022-10-13T12:47:36;8.00;;;4.07;;
69979;SDS011;57318;56.232;43.944;2022-10-13T12:50:20;6.85;;;3.72;;
69979;SDS011;57318;56.232;43.944;2022-10-13T12:55:27;5.80;;;3.40;;
69979;SDS011;57318;56.232;43.944;2022-10-13T12:57:53;5.57;;;3.53;;
69979;SDS011;57318;56.232;43.944;2022-10-13T13:02:51;8.35;;;3.95;;
69979;SDS011;57318;56.232;43.944;2022-10-13T13:05:36;9.35;;;4.20;;
69979;SDS011;57318;56.232;43.944;2022-10-13T13:08:18;9.70;;;3.70;;
69979;SDS011;57318;56.232;43.944;2022-10-13T13:10:55;8.25;;;3.95;;
69979;SDS011;57318;56.232;43.944;2022-10-13T13:13:25;6.47;;;4.10;;
69979;SDS011;57318;56.232;43.944;2022-10-13T13:15:51;8.48;;;3.90;;
69979;SDS011;57318;56.232;43.944;2022-10-13T13:20:55;7.95;;;4.25;;
69979;SDS011;57318;56.232;43.944;2022-10-13T13:23:21;7.53;;;4.65;;
69979;SDS011;57318;56.232;43.944;2022-10-13T13:31:16;9.65;;;4.88;;
69979;SDS011;57318;56.232;43.944;2022-10-13T13:33:44;7.80;;;4.97;;
69979;SDS011;57318;56.232;43.944;2022-10-13T13:36:20;14.00;;;4.78;;
69979;SDS011;57318;56.232;43.944;2022-10-13T13:38:47;11.85;;;4.45;;
69979;SDS011;57318;56.232;43.944;2022-10-13T13:41:17;10.07;;;4.88;;
69979;SDS011;57318;56.232;43.944;2022-10-13T13:43:43;8.45;;;4.72;;
69979;SDS011;57318;56.232;43.944;2022-10-13T13:46:20;7.70;;;4.80;;
69979;SDS011;57318;56.232;43.944;2022-10-13T13:48:52;12.07;;;5.20;;
69979;SDS011;57318;56.232;43.944;2022-10-13T13:51:18;8.23;;;4.57;;
69979;SDS011;57318;56.232;43.944;2022-10-13T13:53:44;7.13;;;4.37;;
69979;SDS011;57318;56.232;43.944;2022-10-13T13:56:15;7.80;;;4.68;;
69979;SDS011;57318;56.232;43.944;2022-10-13T13:58:43;8.18;;;4.30;;
69979;SDS011;57318;56.232;43.944;2022-10-13T14:01:10;9.40;;;5.00;;
69979;SDS011;57318;56.232;43.944;2022-10-13T14:03:38;8.90;;;4.85;;
69979;SDS011;57318;56.232;43.944;2022-10-13T14:06:05;9.30;;;4.68;;
69979;SDS011;57318;56.232;43.944;2022-10-13T14:08:32;8.73;;;4.60;;
69979;SDS011;57318;56.232;43.944;2022-10-13T14:10:59;8.02;;;4.93;;
69979;SDS011;57318;56.232;43.944;2022-10-13T14:13:25;10.13;;;4.80;;
69979;SDS011;57318;56.232;43.944;2022-10-13T14:15:57;9.97;;;5.33;;
69979;SDS011;57318;56.232;43.944;2022-10-13T14:18:24;12.32;;;5.50;;
69979;SDS011;57318;56.232;43.944;2022-10-13T14:20:49;11.20;;;5.33;;
69979;SDS011;57318;56.232;43.944;2022-10-13T14:23:15;10.67;;;5.27;;
69979;SDS011;57318;56.232;43.944;2022-10-13T14:25:41;8.97;;;5.60;;
69979;SDS011;57318;56.232;43.944;2022-10-13T14:28:07;7.90;;;5.50;;
69979;SDS011;57318;56.232;43.944;2022-10-13T14:30:32;12.37;;;5.53;;
69979;SDS011;57318;56.232;43.944;2022-10-13T14:32:58;11.83;;;5.20;;
69979;SDS011;57318;56.232;43.944;2022-10-13T14:35:29;8.90;;;5.50;;
69979;SDS011;57318;56.232;43.944;2022-10-13T14:37:55;11.23;;;5.88;;
69979;SDS011;57318;56.232;43.944;2022-10-13T14:40:20;17.17;;;6.07;;
69979;SDS011;57318;56.232;43.944;2022-10-13T14:42:46;8.60;;;5.50;;
69979;SDS011;57318;56.232;43.944;2022-10-13T14:45:12;10.83;;;5.70;;
69979;SDS011;57318;56.232;43.944;2022-10-13T14:47:37;16.40;;;5.87;;
69979;SDS011;57318;56.232;43.944;2022-10-13T14:50:03;14.47;;;5.90;;
69979;SDS011;57318;56.232;43.944;2022-10-13T14:52:29;15.15;;;5.28;;
69979;SDS011;57318;56.232;43.944;2022-10-13T14:54:55;7.50;;;4.90;;
69979;SDS011;57318;56.232;43.944;2022-10-13T14:57:21;8.67;;;5.30;;
69979;SDS011;57318;56.232;43.944;2022-10-13T14:59:46;11.57;;;5.17;;
69979;SDS011;57318;56.232;43.944;2022-10-13T15:02:12;11.03;;;5.00;;
69979;SDS011;57318;56.232;43.944;2022-10-13T15:04:38;12.53;;;5.47;;
69979;SDS011;57318;56.232;43.944;2022-10-13T15:07:04;8.27;;;5.22;;
69979;SDS011;57318;56.232;43.944;2022-10-13T15:09:30;10.63;;;5.33;;
69979;SDS011;57318;56.232;43.944;2022-10-13T15:11:56;16.63;;;6.10;;
69979;SDS011;57318;56.232;43.944;2022-10-13T15:14:22;12.23;;;6.33;;
69979;SDS011;57318;56.232;43.944;2022-10-13T15:16:47;15.40;;;6.07;;
69979;SDS011;57318;56.232;43.944;2022-10-13T15:19:13;13.80;;;6.73;;
69979;SDS011;57318;56.232;43.944;2022-10-13T15:21:39;14.10;;;6.90;;
69979;SDS011;57318;56.232;43.944;2022-10-13T15:24:05;14.73;;;7.53;;
69979;SDS011;57318;56.232;43.944;2022-10-13T15:26:32;18.00;;;7.38;;
69979;SDS011;57318;56.232;43.944;2022-10-13T15:29:03;12.75;;;7.07;;
69979;SDS011;57318;56.232;43.944;2022-10-13T15:31:29;12.63;;;7.13;;
69979;SDS011;57318;56.232;43.944;2022-10-13T15:33:55;14.07;;;7.27;;
69979;SDS011;57318;56.232;43.944;2022-10-13T15:36:21;13.83;;;6.30;;
69979;SDS011;57318;56.232;43.944;2022-10-13T15:38:49;12.18;;;5.95;;
69979;SDS011;57318;56.232;43.944;2022-10-13T15:41:15;13.25;;;5.57;;
69979;SDS011;57318;56.232;43.944;2022-10-13T15:43:42;10.82;;;5.80;;
69979;SDS011;57318;56.232;43.944;2022-10-13T15:46:12;13.10;;;5.93;;
69979;SDS011;57318;56.232;43.944;2022-10-13T15:48:49;10.18;;;5.18;;
69979;SDS011;57318;56.232;43.944;2022-10-13T15:51:20;13.63;;;5.88;;
69979;SDS011;57318;56.232;43.944;2022-10-13T15:53:48;12.27;;;6.38;;
69979;SDS011;57318;56.232;43.944;2022-10-13T15:56:14;13.13;;;6.22;;
69979;SDS011;57318;56.232;43.944;2022-10-13T15:58:40;10.77;;;6.00;;
69979;SDS011;57318;56.232;43.944;2022-10-13T16:01:07;14.73;;;6.73;;
69979;SDS011;57318;56.232;43.944;2022-10-13T16:03:39;12.15;;;6.40;;
69979;SDS011;57318;56.232;43.944;2022-10-13T16:06:06;16.23;;;6.05;;
69979;SDS011;57318;56.232;43.944;2022-10-13T16:08:34;12.50;;;5.75;;
69979;SDS011;57318;56.232;43.944;2022-10-13T16:11:01;10.88;;;5.60;;
69979;SDS011;57318;56.232;43.944;2022-10-13T16:13:31;10.82;;;5.60;;
69979;SDS011;57318;56.232;43.944;2022-10-13T16:15:58;9.17;;;5.50;;
69979;SDS011;57318;56.232;43.944;2022-10-13T16:18:32;10.52;;;5.25;;
69979;SDS011;57318;56.232;43.944;2022-10-13T16:20:59;11.32;;;5.50;;
69979;SDS011;57318;56.232;43.944;2022-10-13T16:23:25;11.43;;;5.17;;
69979;SDS011;57318;56.232;43.944;2022-10-13T16:25:51;11.98;;;5.13;;